Time;durP1;ratioP1;P1;durP2;ratioP2;P2;SDS_P1;SDS_P2;PMS_P1;PMS_P2;Temp;Humidity;BMP_temperature;BMP_pressure;BME280_temperature;BME280_humidity;BME280_pressure;Samples;Min_cycle;Max_cycle;Signal;HPM_P1;HPM_P2
2023/05/26 00:01:25;;;;;;;;;;;8.60;99.90;;;;;;5108103;28;19977;-66
2023/05/26 00:03:50;;;;;;;;;;;8.60;99.90;;;;;;5112890;28;19986;-66
2023/05/26 00:06:16;;;;;;;;;;;8.60;99.90;;;;;;5114678;28;19926;-66
2023/05/26 00:08:41;;;;;;;;;;;8.50;99.90;;;;;;5110119;28;19954;-66
2023/05/26 00:11:07;;;;;;;;;;;8.60;99.90;;;;;;5105888;28;19920;-66
2023/05/26 00:13:33;;;;;;;;;;;8.60;99.90;;;;;;5112971;27;19959;-68
2023/05/26 00:15:58;;;;;;;;;;;8.60;99.90;;;;;;5129785;27;20407;-66
2023/05/26 00:18:27;;;;;;;;;;;8.60;99.90;;;;;;5100720;28;19974;-66
2023/05/26 00:20:53;;;;;;;;;;;8.60;99.90;;;;;;5113882;28;19923;-66
2023/05/26 00:23:18;;;;;;;;;;;8.60;99.90;;;;;;5114212;28;20274;-67
2023/05/26 00:25:44;;;;;;;;;;;8.60;99.90;;;;;;5110602;28;20365;-66
2023/05/26 00:28:09;;;;;;;;;;;8.50;99.90;;;;;;5111520;28;19920;-66
2023/05/26 00:30:35;;;;;;;;;;;8.50;99.90;;;;;;5112169;28;19944;-67
2023/05/26 00:33:00;;;;;;;;;;;8.50;99.90;;;;;;5106917;28;19931;-66
2023/05/26 00:35:26;;;;;;;;;;;8.50;99.90;;;;;;5097492;28;19920;-67
2023/05/26 00:37:51;;;;;;;;;;;8.30;99.90;;;;;;5111872;28;19979;-67
2023/05/26 00:40:17;;;;;;;;;;;8.40;99.90;;;;;;5113817;28;19927;-66
2023/05/26 00:42:43;;;;;;;;;;;8.30;99.90;;;;;;5109186;28;19920;-67
2023/05/26 00:45:09;;;;;;;;;;;8.30;99.90;;;;;;5105511;28;20071;-67
2023/05/26 00:47:34;;;;;;;;;;;8.20;99.90;;;;;;5113014;28;20331;-65
2023/05/26 00:50:00;;;;;;;;;;;8.10;99.90;;;;;;5104088;28;19920;-67
2023/05/26 00:52:26;;;;;;;;;;;8.10;99.90;;;;;;5109351;28;20339;-67
2023/05/26 00:54:52;;;;;;;;;;;8.10;99.90;;;;;;5113234;28;19920;-67
2023/05/26 00:57:18;;;;;;;;;;;8.00;99.90;;;;;;5112695;28;20028;-66
2023/05/26 00:59:43;;;;;;;;;;;8.00;99.90;;;;;;5106554;28;19967;-68
2023/05/26 01:02:11;;;;;;;;;;;8.00;99.90;;;;;;5112864;28;20007;-67
2023/05/26 01:04:40;;;;;;;;;;;7.90;99.90;;;;;;5113088;28;19966;-68
2023/05/26 01:07:05;;;;;;;;;;;7.90;99.90;;;;;;5099653;28;19928;-67
2023/05/26 01:09:31;;;;;;;;;;;7.90;99.90;;;;;;5110270;28;19924;-68
2023/05/26 01:12:03;;;;;;;;;;;7.80;99.90;;;;;;5112675;28;20019;-68
2023/05/26 01:14:34;;;;;;;;;;;7.80;99.90;;;;;;5113166;28;19924;-70
2023/05/26 01:17:02;;;;;;;;;;;7.70;99.90;;;;;;5109517;28;19920;-67
2023/05/26 01:19:50;;;;;;;;;;;7.60;99.90;;;;;;5106465;28;19920;-67
2023/05/26 01:22:34;;;;;;;;;;;7.60;99.90;;;;;;5112761;28;19926;-67
2023/05/26 01:25:06;;;;;;;;;;;7.60;99.90;;;;;;5104899;28;19927;-66
2023/05/26 01:27:41;;;;;;;;;;;7.60;99.90;;;;;;5112133;28;20366;-67
2023/05/26 01:30:07;;;;;;;;;;;7.60;99.90;;;;;;5113104;28;19926;-69
2023/05/26 01:32:32;;;;;;;;;;;7.60;99.90;;;;;;5107535;28;19919;-69
2023/05/26 01:34:58;;;;;;;;;;;7.50;99.90;;;;;;5111987;28;19923;-69
2023/05/26 01:37:24;;;;;;;;;;;7.40;99.90;;;;;;5112306;28;19979;-69
2023/05/26 01:39:49;;;;;;;;;;;7.40;99.90;;;;;;5105049;28;20388;-68
2023/05/26 01:42:23;;;;;;;;;;;7.40;99.90;;;;;;5107721;28;19919;-69
2023/05/26 01:44:57;;;;;;;;;;;7.30;99.90;;;;;;5104945;28;19947;-69
2023/05/26 01:47:25;;;;;;;;;;;7.30;99.90;;;;;;5111417;28;19975;-69
2023/05/26 01:49:51;;;;;;;;;;;7.20;99.90;;;;;;5107119;28;19972;-69
2023/05/26 01:52:17;;;;;;;;;;;7.20;99.90;;;;;;5104393;28;19919;-69
2023/05/26 01:54:47;;;;;;;;;;;7.10;99.90;;;;;;5112237;28;19920;-69
2023/05/26 01:57:13;;;;;;;;;;;7.10;99.90;;;;;;5106147;28;19963;-69
2023/05/26 01:59:39;;;;;;;;;;;7.10;99.90;;;;;;5107284;28;19939;-69
2023/05/26 02:02:05;;;;;;;;;;;7.00;99.90;;;;;;5112075;28;19919;-68
2023/05/26 02:04:30;;;;;;;;;;;7.00;99.90;;;;;;5109773;28;19972;-68
2023/05/26 02:06:57;;;;;;;;;;;6.90;99.90;;;;;;5111303;28;19959;-69
2023/05/26 02:09:23;;;;;;;;;;;6.90;99.90;;;;;;5111676;28;19963;-69
2023/05/26 02:11:48;;;;;;;;;;;6.90;99.90;;;;;;5111029;22;19962;-66
2023/05/26 02:14:14;;;;;;;;;;;6.90;99.90;;;;;;5073870;28;20024;-67
2023/05/26 02:16:39;;;;;;;;;;;6.90;99.90;;;;;;5088557;28;19920;-67
2023/05/26 02:19:07;;;;;;;;;;;6.80;99.90;;;;;;5073412;28;19959;-67
2023/05/26 02:21:33;;;;;;;;;;;6.80;99.90;;;;;;5091864;28;20037;-67
2023/05/26 02:23:58;;;;;;;;;;;6.70;99.90;;;;;;5086932;28;20417;-67
2023/05/26 02:26:24;;;;;;;;;;;6.70;99.90;;;;;;5085752;28;20316;-67
2023/05/26 02:28:50;;;;;;;;;;;6.70;99.90;;;;;;5090922;28;19955;-67
2023/05/26 02:31:16;;;;;;;;;;;6.60;99.90;;;;;;5082881;28;20065;-67
2023/05/26 02:33:42;;;;;;;;;;;6.60;99.90;;;;;;5091342;28;20007;-67
2023/05/26 02:36:07;;;;;;;;;;;6.60;99.90;;;;;;5072969;28;19924;-67
2023/05/26 02:38:33;;;;;;;;;;;6.50;99.90;;;;;;5072955;28;19924;-67
2023/05/26 02:40:58;;;;;;;;;;;6.50;99.90;;;;;;5081584;28;20300;-67
2023/05/26 02:43:24;;;;;;;;;;;6.50;99.90;;;;;;5090332;28;19927;-67
2023/05/26 02:45:50;;;;;;;;;;;6.40;99.90;;;;;;5071340;28;19924;-67
2023/05/26 02:48:15;;;;;;;;;;;6.40;99.90;;;;;;5086907;28;20392;-67
2023/05/26 02:50:41;;;;;;;;;;;6.40;99.90;;;;;;5090617;28;20332;-67
2023/05/26 02:53:06;;;;;;;;;;;6.40;99.90;;;;;;5090330;28;19940;-67
2023/05/26 02:55:32;;;;;;;;;;;6.30;99.90;;;;;;5085026;28;19924;-67
2023/05/26 02:57:57;;;;;;;;;;;6.40;99.90;;;;;;5087782;28;19924;-67
2023/05/26 03:00:23;;;;;;;;;;;6.30;99.90;;;;;;5090974;28;19920;-67
2023/05/26 03:02:48;;;;;;;;;;;6.30;99.90;;;;;;5086196;28;19924;-67
2023/05/26 03:05:14;;;;;;;;;;;6.20;99.90;;;;;;5075738;28;19921;-67
2023/05/26 03:07:39;;;;;;;;;;;6.20;99.90;;;;;;5093978;28;19920;-67
2023/05/26 03:10:05;;;;;;;;;;;6.30;99.90;;;;;;5076876;28;19920;-67
2023/05/26 03:12:31;;;;;;;;;;;6.20;99.90;;;;;;5084302;28;19966;-67
2023/05/26 03:14:56;;;;;;;;;;;6.30;99.90;;;;;;5063359;28;20293;-67
2023/05/26 03:17:22;;;;;;;;;;;6.30;99.90;;;;;;5094551;28;19924;-68
2023/05/26 03:19:47;;;;;;;;;;;6.30;99.90;;;;;;5090214;28;20031;-68
2023/05/26 03:22:13;;;;;;;;;;;6.30;99.90;;;;;;5090483;28;19920;-68
2023/05/26 03:24:38;;;;;;;;;;;6.30;99.90;;;;;;5094443;28;19920;-67
2023/05/26 03:27:04;;;;;;;;;;;6.30;99.90;;;;;;5094850;28;20342;-68
2023/05/26 03:29:30;;;;;;;;;;;6.30;99.90;;;;;;5063460;28;19928;-68
2023/05/26 03:31:56;;;;;;;;;;;6.20;99.90;;;;;;5093764;28;19924;-68
2023/05/26 03:34:23;;;;;;;;;;;6.20;99.90;;;;;;5062995;28;19974;-68
2023/05/26 03:36:49;;;;;;;;;;;6.20;99.90;;;;;;5078118;28;19963;-68
2023/05/26 03:39:15;;;;;;;;;;;6.20;99.90;;;;;;5086172;28;19924;-68
2023/05/26 03:41:41;;;;;;;;;;;6.20;99.90;;;;;;5075960;28;19927;-68
2023/05/26 03:44:06;;;;;;;;;;;6.20;99.90;;;;;;5094026;28;19926;-68
2023/05/26 03:46:32;;;;;;;;;;;6.20;99.90;;;;;;5080173;28;19927;-68
2023/05/26 03:48:57;;;;;;;;;;;6.20;99.90;;;;;;5092102;28;20401;-68
2023/05/26 03:51:23;;;;;;;;;;;6.20;99.90;;;;;;5075900;28;19924;-68
2023/05/26 03:53:49;;;;;;;;;;;6.20;99.90;;;;;;5086965;28;20330;-69
2023/05/26 03:56:14;;;;;;;;;;;6.20;99.90;;;;;;5073253;28;19924;-69
2023/05/26 03:58:40;;;;;;;;;;;6.20;99.90;;;;;;5093141;28;19924;-69
2023/05/26 04:01:06;;;;;;;;;;;6.20;99.90;;;;;;5089537;28;20003;-69
2023/05/26 04:03:31;;;;;;;;;;;6.30;99.90;;;;;;5074445;28;19920;-69
2023/05/26 04:05:59;;;;;;;;;;;6.30;99.90;;;;;;5093794;28;19920;-67
2023/05/26 04:08:25;;;;;;;;;;;6.30;99.90;;;;;;5075410;28;20539;-67
2023/05/26 04:10:51;;;;;;;;;;;6.30;99.90;;;;;;5063775;28;19963;-67
2023/05/26 04:13:16;;;;;;;;;;;6.30;99.90;;;;;;5091098;28;19977;-67
2023/05/26 04:15:42;;;;;;;;;;;6.30;99.90;;;;;;5075698;28;20305;-67
2023/05/26 04:18:08;;;;;;;;;;;6.30;99.90;;;;;;5089511;28;19931;-67
2023/05/26 04:20:33;;;;;;;;;;;6.40;99.90;;;;;;5073995;28;19999;-67
2023/05/26 04:22:59;;;;;;;;;;;6.40;99.90;;;;;;5092353;28;19920;-67
2023/05/26 04:25:24;;;;;;;;;;;6.40;99.90;;;;;;5093146;28;19920;-67
2023/05/26 04:27:52;;;;;;;;;;;6.40;99.90;;;;;;5070599;28;19921;-67
2023/05/26 04:30:18;;;;;;;;;;;6.40;99.90;;;;;;5093008;28;19921;-67
2023/05/26 04:32:43;;;;;;;;;;;6.50;99.90;;;;;;5093452;28;19920;-68
2023/05/26 04:35:10;;;;;;;;;;;6.50;99.90;;;;;;5090326;28;19927;-70
2023/05/26 04:37:38;;;;;;;;;;;6.50;99.90;;;;;;5063833;28;20398;-68
2023/05/26 04:40:05;;;;;;;;;;;6.50;99.90;;;;;;5074444;28;19920;-68
2023/05/26 04:42:33;;;;;;;;;;;6.60;99.90;;;;;;5072459;28;19924;-72
2023/05/26 04:45:00;;;;;;;;;;;6.60;99.90;;;;;;5075903;28;19927;-67
2023/05/26 04:47:27;;;;;;;;;;;6.60;99.90;;;;;;5069214;28;20007;-69
2023/05/26 04:49:53;;;;;;;;;;;6.80;99.90;;;;;;5094109;28;19924;-69
2023/05/26 04:52:18;;;;;;;;;;;6.80;99.90;;;;;;5095556;28;19972;-67
2023/05/26 04:54:44;;;;;;;;;;;6.90;99.90;;;;;;5075012;28;19928;-69
2023/05/26 04:57:09;;;;;;;;;;;7.00;99.90;;;;;;5076538;28;20394;-69
2023/05/26 04:59:37;;;;;;;;;;;7.00;99.90;;;;;;5065129;28;19928;-68
2023/05/26 05:02:03;;;;;;;;;;;7.10;99.90;;;;;;5091911;28;20447;-68
2023/05/26 05:04:28;;;;;;;;;;;7.20;99.90;;;;;;5089050;28;19967;-67
2023/05/26 05:06:54;;;;;;;;;;;7.30;99.90;;;;;;5091378;28;19999;-69
2023/05/26 05:09:21;;;;;;;;;;;7.30;99.90;;;;;;5062405;28;20382;-68
2023/05/26 05:11:46;;;;;;;;;;;7.40;99.90;;;;;;5071943;28;20281;-69
2023/05/26 05:14:12;;;;;;;;;;;7.50;99.90;;;;;;5090798;28;20412;-68
2023/05/26 05:16:38;;;;;;;;;;;7.70;99.90;;;;;;5024680;28;19924;-69
2023/05/26 05:19:03;;;;;;;;;;;7.70;99.90;;;;;;5058914;28;20792;-68
2023/05/26 05:21:29;;;;;;;;;;;7.80;99.90;;;;;;5083071;28;19927;-68
2023/05/26 05:23:54;;;;;;;;;;;7.90;99.90;;;;;;5083708;28;19928;-69
2023/05/26 05:26:21;;;;;;;;;;;8.00;99.90;;;;;;5087141;28;19924;-67
2023/05/26 05:28:47;;;;;;;;;;;8.10;99.90;;;;;;5060398;28;19973;-68
2023/05/26 05:31:12;;;;;;;;;;;8.20;99.90;;;;;;5073128;28;19928;-69
2023/05/26 05:33:42;;;;;;;;;;;8.30;99.90;;;;;;5065156;28;19939;-70
2023/05/26 05:36:08;;;;;;;;;;;8.40;99.90;;;;;;5067123;28;19966;-68
2023/05/26 05:38:34;;;;;;;;;;;8.50;99.90;;;;;;5091287;28;20396;-67
2023/05/26 05:40:59;;;;;;;;;;;8.50;99.90;;;;;;5074066;28;19924;-68
2023/05/26 05:43:26;;;;;;;;;;;8.60;99.90;;;;;;5081788;28;19927;-67
2023/05/26 05:45:51;;;;;;;;;;;8.70;99.90;;;;;;5083878;28;19920;-68
2023/05/26 05:48:17;;;;;;;;;;;8.90;99.90;;;;;;5063298;28;19931;-68
2023/05/26 05:50:42;;;;;;;;;;;8.90;99.90;;;;;;5072621;28;20424;-68
2023/05/26 05:53:08;;;;;;;;;;;9.00;99.90;;;;;;5065867;28;19969;-67
2023/05/26 05:55:33;;;;;;;;;;;9.20;99.90;;;;;;5065907;28;19924;-68
2023/05/26 05:57:59;;;;;;;;;;;9.20;99.90;;;;;;5084117;28;19928;-70
2023/05/26 06:00:24;;;;;;;;;;;9.30;99.90;;;;;;5065411;28;20350;-69
2023/05/26 06:02:50;;;;;;;;;;;9.40;99.90;;;;;;5052094;28;19920;-67
2023/05/26 06:05:15;;;;;;;;;;;9.50;99.90;;;;;;5078957;28;20348;-68
2023/05/26 06:07:41;;;;;;;;;;;9.60;99.90;;;;;;5053060;28;19928;-68
2023/05/26 06:10:07;;;;;;;;;;;9.70;99.90;;;;;;5082834;28;19923;-67
2023/05/26 06:12:32;;;;;;;;;;;9.80;99.90;;;;;;5085879;28;19920;-69
2023/05/26 06:14:58;;;;;;;;;;;9.90;99.90;;;;;;5089945;28;19965;-68
2023/05/26 06:17:23;;;;;;;;;;;10.00;99.90;;;;;;5090480;28;20298;-68
2023/05/26 06:19:49;;;;;;;;;;;10.10;99.90;;;;;;5065624;28;19920;-67
2023/05/26 06:22:14;;;;;;;;;;;10.20;99.90;;;;;;5063660;28;20298;-68
2023/05/26 06:24:40;;;;;;;;;;;10.40;99.90;;;;;;5077354;28;20070;-69
2023/05/26 06:27:05;;;;;;;;;;;10.50;99.90;;;;;;5084768;28;19976;-69
2023/05/26 06:29:31;;;;;;;;;;;10.70;99.90;;;;;;5091157;28;19932;-69
2023/05/26 06:31:56;;;;;;;;;;;10.80;99.90;;;;;;5071210;28;19920;-67
2023/05/26 06:34:22;;;;;;;;;;;11.00;99.90;;;;;;5079787;28;19986;-68
2023/05/26 06:36:50;;;;;;;;;;;10.90;99.90;;;;;;5091207;28;19928;-70
2023/05/26 06:39:15;;;;;;;;;;;11.00;99.90;;;;;;5089183;28;20043;-68
2023/05/26 06:41:41;;;;;;;;;;;11.00;99.90;;;;;;5082073;28;20049;-68
2023/05/26 06:44:06;;;;;;;;;;;11.00;99.90;;;;;;5086582;28;19955;-69
2023/05/26 06:46:32;;;;;;;;;;;11.00;99.90;;;;;;5077140;28;19920;-69
2023/05/26 06:48:58;;;;;;;;;;;11.00;99.90;;;;;;5092452;28;19920;-67
2023/05/26 06:51:23;;;;;;;;;;;11.00;99.90;;;;;;5091439;28;19920;-68
2023/05/26 06:53:49;;;;;;;;;;;11.00;99.90;;;;;;5094812;28;19924;-69
2023/05/26 06:56:14;;;;;;;;;;;11.00;99.90;;;;;;5092035;28;19967;-68
2023/05/26 06:58:40;;;;;;;;;;;10.90;99.90;;;;;;5087216;28;19924;-69
2023/05/26 07:01:06;;;;;;;;;;;10.80;99.90;;;;;;5094857;28;19926;-69
2023/05/26 07:03:32;;;;;;;;;;;10.90;99.90;;;;;;5095386;28;19963;-69
2023/05/26 07:05:59;;;;;;;;;;;10.90;99.90;;;;;;5089118;28;19982;-69
2023/05/26 07:08:25;;;;;;;;;;;10.90;99.90;;;;;;5092727;28;20340;-69
2023/05/26 07:10:50;;;;;;;;;;;10.90;99.90;;;;;;5076660;28;19946;-68
2023/05/26 07:13:16;;;;;;;;;;;11.00;99.90;;;;;;5061185;28;19924;-68
2023/05/26 07:15:41;;;;;;;;;;;11.00;99.90;;;;;;5080119;28;19924;-69
2023/05/26 07:18:07;;;;;;;;;;;11.00;99.90;;;;;;5085597;28;20297;-69
2023/05/26 07:20:33;;;;;;;;;;;11.10;99.90;;;;;;5067294;28;20018;-68
2023/05/26 07:22:58;;;;;;;;;;;11.10;99.90;;;;;;5055057;28;19924;-68
2023/05/26 07:25:24;;;;;;;;;;;11.20;99.90;;;;;;5068439;28;19921;-68
2023/05/26 07:27:49;;;;;;;;;;;11.20;99.90;;;;;;5082429;28;19932;-68
2023/05/26 07:30:15;;;;;;;;;;;11.30;99.90;;;;;;5057819;28;19925;-68
2023/05/26 07:32:41;;;;;;;;;;;11.40;99.90;;;;;;5051810;28;20873;-68
2023/05/26 07:35:07;;;;;;;;;;;11.50;99.90;;;;;;5092181;28;19928;-68
2023/05/26 07:37:33;;;;;;;;;;;11.70;99.90;;;;;;5094168;28;19932;-69
2023/05/26 07:39:58;;;;;;;;;;;11.90;99.90;;;;;;5064975;28;19920;-69
2023/05/26 07:42:23;;;;;;;;;;;12.20;99.90;;;;;;5084788;28;19965;-69
2023/05/26 07:44:49;;;;;;;;;;;12.40;99.90;;;;;;5067892;28;20297;-69
2023/05/26 07:47:15;;;;;;;;;;;12.60;99.90;;;;;;5076093;28;19925;-69
2023/05/26 07:49:40;;;;;;;;;;;12.80;99.90;;;;;;5066583;28;19927;-69
2023/05/26 07:52:06;;;;;;;;;;;12.80;99.90;;;;;;5092521;28;19924;-69
2023/05/26 07:54:31;;;;;;;;;;;12.80;99.90;;;;;;5094378;28;20377;-68
2023/05/26 07:56:57;;;;;;;;;;;12.90;99.90;;;;;;5082806;28;19931;-69
2023/05/26 07:59:22;;;;;;;;;;;13.00;99.90;;;;;;5090124;28;19924;-69
2023/05/26 08:01:48;;;;;;;;;;;13.00;99.90;;;;;;5068334;28;19920;-69
2023/05/26 08:04:13;;;;;;;;;;;13.00;99.90;;;;;;5081890;28;19930;-68
2023/05/26 08:06:39;;;;;;;;;;;13.10;99.90;;;;;;5093134;28;20350;-69
2023/05/26 08:09:05;;;;;;;;;;;13.00;99.90;;;;;;5075255;28;19920;-69
2023/05/26 08:11:30;;;;;;;;;;;13.00;99.90;;;;;;5082348;28;20019;-70
2023/05/26 08:13:56;;;;;;;;;;;12.90;99.90;;;;;;5085324;28;19920;-70
2023/05/26 08:16:21;;;;;;;;;;;12.90;99.90;;;;;;5094688;28;19973;-69
2023/05/26 08:18:47;;;;;;;;;;;12.90;99.90;;;;;;5093763;28;19928;-70
2023/05/26 08:21:12;;;;;;;;;;;12.90;99.90;;;;;;5075665;28;19946;-70
2023/05/26 08:23:41;;;;;;;;;;;13.00;99.90;;;;;;5085780;28;20354;-69
2023/05/26 08:26:08;;;;;;;;;;;13.10;99.90;;;;;;5093745;28;20014;-69
2023/05/26 08:28:33;;;;;;;;;;;13.10;99.90;;;;;;5070645;28;19969;-69
2023/05/26 08:30:59;;;;;;;;;;;13.10;99.90;;;;;;5082495;28;20290;-70
2023/05/26 08:33:24;;;;;;;;;;;13.20;99.90;;;;;;5093352;28;19927;-71
2023/05/26 08:35:50;;;;;;;;;;;13.30;99.90;;;;;;5093545;28;20069;-69
2023/05/26 08:38:15;;;;;;;;;;;13.30;99.90;;;;;;5083498;28;19994;-69
2023/05/26 08:40:41;;;;;;;;;;;13.40;99.90;;;;;;5092769;28;19950;-70
2023/05/26 08:43:07;;;;;;;;;;;13.50;99.90;;;;;;5093333;28;19943;-70
2023/05/26 08:45:33;;;;;;;;;;;13.80;99.90;;;;;;5067167;28;19920;-70
2023/05/26 08:48:00;;;;;;;;;;;13.80;99.90;;;;;;5081774;28;20401;-70
2023/05/26 08:50:28;;;;;;;;;;;13.90;99.90;;;;;;5092906;28;19920;-70
2023/05/26 08:52:55;;;;;;;;;;;14.00;99.90;;;;;;5087383;28;20309;-70
2023/05/26 08:55:20;;;;;;;;;;;14.00;99.90;;;;;;5080098;28;19920;-70
2023/05/26 08:57:47;;;;;;;;;;;14.10;99.90;;;;;;5074750;28;19931;-68
2023/05/26 09:00:13;;;;;;;;;;;14.20;99.90;;;;;;5075284;28;19920;-68
2023/05/26 09:02:38;;;;;;;;;;;14.30;99.90;;;;;;5088366;28;19985;-70
2023/05/26 09:05:04;;;;;;;;;;;14.30;99.90;;;;;;5087326;28;19928;-69
2023/05/26 09:07:30;;;;;;;;;;;14.20;99.90;;;;;;5075059;28;19927;-69
2023/05/26 09:10:00;;;;;;;;;;;14.30;99.90;;;;;;5061805;28;19924;-68
2023/05/26 09:12:34;;;;;;;;;;;14.50;99.90;;;;;;5075550;28;19920;-69
2023/05/26 09:14:59;;;;;;;;;;;14.60;99.90;;;;;;5093022;28;20003;-68
2023/05/26 09:17:25;;;;;;;;;;;14.80;99.90;;;;;;5092941;28;19963;-68
2023/05/26 09:19:50;;;;;;;;;;;15.00;99.90;;;;;;5064101;28;19924;-68
2023/05/26 09:22:16;;;;;;;;;;;15.10;99.90;;;;;;5090476;28;20335;-69
2023/05/26 09:24:49;;;;;;;;;;;15.00;99.40;;;;;;5092993;28;19965;-68
2023/05/26 09:27:17;;;;;;;;;;;15.10;99.90;;;;;;5083669;28;19920;-70
2023/05/26 09:29:49;;;;;;;;;;;15.10;99.20;;;;;;5072795;28;19963;-69
2023/05/26 09:32:15;;;;;;;;;;;15.20;99.40;;;;;;5093063;28;19989;-69
2023/05/26 09:34:41;;;;;;;;;;;15.30;98.80;;;;;;5093413;28;20334;-68
2023/05/26 09:37:08;;;;;;;;;;;15.30;98.50;;;;;;5065765;28;19967;-70
2023/05/26 09:39:34;;;;;;;;;;;15.30;98.40;;;;;;5089059;28;19935;-69
2023/05/26 09:42:03;;;;;;;;;;;15.30;99.10;;;;;;5093023;28;19920;-68
2023/05/26 09:44:31;;;;;;;;;;;15.30;97.80;;;;;;5062814;28;20435;-68
2023/05/26 09:46:56;;;;;;;;;;;15.40;99.50;;;;;;5070074;28;19920;-68
2023/05/26 09:49:22;;;;;;;;;;;15.50;98.80;;;;;;5092654;28;19920;-69
2023/05/26 09:51:49;;;;;;;;;;;15.50;98.60;;;;;;5088675;28;19920;-68
2023/05/26 09:54:15;;;;;;;;;;;15.60;98.30;;;;;;5091519;28;20409;-68
2023/05/26 09:56:56;;;;;;;;;;;15.50;96.80;;;;;;5091794;28;20016;-67
2023/05/26 09:59:26;;;;;;;;;;;15.70;98.00;;;;;;5090255;28;19924;-66
2023/05/26 10:01:52;;;;;;;;;;;15.80;96.90;;;;;;5068011;28;19927;-67
2023/05/26 10:04:18;;;;;;;;;;;15.90;97.70;;;;;;5073629;28;20289;-67
2023/05/26 10:06:43;;;;;;;;;;;16.00;96.20;;;;;;5086773;28;19931;-67
2023/05/26 10:09:10;;;;;;;;;;;16.00;96.40;;;;;;5062013;28;19920;-68
2023/05/26 10:11:36;;;;;;;;;;;16.00;95.60;;;;;;5089714;28;20342;-67
2023/05/26 10:14:02;;;;;;;;;;;16.00;95.20;;;;;;5093591;28;19920;-67
2023/05/26 10:16:28;;;;;;;;;;;16.00;95.60;;;;;;5089768;28;19940;-67
2023/05/26 10:18:54;;;;;;;;;;;16.20;95.10;;;;;;5069092;28;19928;-67
2023/05/26 10:21:21;;;;;;;;;;;16.10;93.90;;;;;;5077919;28;20390;-68
2023/05/26 10:24:01;;;;;;;;;;;16.10;93.70;;;;;;5074434;28;20378;-66
2023/05/26 10:26:33;;;;;;;;;;;16.20;93.10;;;;;;5063666;28;19931;-68
2023/05/26 10:29:03;;;;;;;;;;;16.30;93.90;;;;;;5085972;28;20018;-68
2023/05/26 10:31:30;;;;;;;;;;;16.30;93.60;;;;;;5088504;28;19931;-67
2023/05/26 10:33:56;;;;;;;;;;;16.40;94.20;;;;;;5079437;28;20027;-66
2023/05/26 10:36:21;;;;;;;;;;;16.40;93.40;;;;;;5077030;28;19931;-68
2023/05/26 10:38:48;;;;;;;;;;;16.40;94.00;;;;;;5069300;28;19928;-67
2023/05/26 10:41:28;;;;;;;;;;;16.60;94.40;;;;;;5069537;28;20058;-66
2023/05/26 10:43:54;;;;;;;;;;;16.80;93.60;;;;;;5082907;28;19967;-69
2023/05/26 10:46:19;;;;;;;;;;;16.70;93.20;;;;;;5081868;28;20029;-69
2023/05/26 10:48:56;;;;;;;;;;;16.70;92.60;;;;;;5072193;28;19927;-68
2023/05/26 10:51:25;;;;;;;;;;;16.70;93.50;;;;;;5068669;28;19932;-68
2023/05/26 10:53:51;;;;;;;;;;;16.90;93.10;;;;;;5081005;28;20532;-68
2023/05/26 10:56:18;;;;;;;;;;;16.80;92.70;;;;;;5088517;28;20598;-68
2023/05/26 10:58:45;;;;;;;;;;;16.80;91.60;;;;;;5066896;28;20662;-67
2023/05/26 11:01:12;;;;;;;;;;;16.80;90.20;;;;;;5076881;28;19925;-68
2023/05/26 11:03:44;;;;;;;;;;;17.00;92.00;;;;;;5074787;28;19920;-68
2023/05/26 11:06:11;;;;;;;;;;;17.10;92.50;;;;;;5074166;28;19977;-68
2023/05/26 11:08:43;;;;;;;;;;;17.10;90.50;;;;;;5085416;28;19943;-68
2023/05/26 11:11:09;;;;;;;;;;;17.20;92.60;;;;;;5094367;28;19920;-69
2023/05/26 11:13:49;;;;;;;;;;;17.30;90.80;;;;;;5077143;28;19969;-68
2023/05/26 11:16:22;;;;;;;;;;;17.20;90.70;;;;;;5065208;28;19924;-68
2023/05/26 11:18:49;;;;;;;;;;;17.30;91.60;;;;;;5068548;28;19924;-68
2023/05/26 11:21:15;;;;;;;;;;;17.30;91.40;;;;;;5094755;28;20386;-68
2023/05/26 11:23:40;;;;;;;;;;;17.40;92.30;;;;;;5086660;28;19920;-68
2023/05/26 11:26:10;;;;;;;;;;;17.50;94.00;;;;;;5088592;28;19921;-68
2023/05/26 11:28:39;;;;;;;;;;;17.70;93.20;;;;;;5075915;28;19927;-68
2023/05/26 11:31:09;;;;;;;;;;;17.80;92.10;;;;;;5095027;28;19967;-69
2023/05/26 11:33:34;;;;;;;;;;;17.80;91.60;;;;;;5070606;28;19924;-69
2023/05/26 11:36:07;;;;;;;;;;;17.80;89.70;;;;;;5088244;28;19980;-67
2023/05/26 11:38:33;;;;;;;;;;;17.60;88.60;;;;;;5084573;28;19924;-68
2023/05/26 11:40:59;;;;;;;;;;;17.60;90.30;;;;;;5070095;28;19920;-68
2023/05/26 11:43:24;;;;;;;;;;;17.50;89.50;;;;;;5073772;28;19928;-67
2023/05/26 11:45:53;;;;;;;;;;;17.60;91.60;;;;;;5091362;28;19946;-69
2023/05/26 11:48:18;;;;;;;;;;;17.90;90.70;;;;;;5093703;28;20614;-69
2023/05/26 11:50:44;;;;;;;;;;;17.90;90.10;;;;;;5076297;28;19923;-69
2023/05/26 11:53:09;;;;;;;;;;;17.90;90.10;;;;;;5082764;28;19927;-69
2023/05/26 11:55:35;;;;;;;;;;;18.10;90.50;;;;;;5075465;28;20014;-68
2023/05/26 11:58:00;;;;;;;;;;;18.10;90.70;;;;;;5065896;28;19931;-69
2023/05/26 12:00:26;;;;;;;;;;;18.20;90.40;;;;;;5092197;28;19955;-70
2023/05/26 12:02:51;;;;;;;;;;;18.10;89.20;;;;;;5076302;28;20275;-70
2023/05/26 12:05:25;;;;;;;;;;;18.20;88.90;;;;;;5068902;28;20306;-68
2023/05/26 12:08:21;;;;;;;;;;;18.20;88.70;;;;;;5086293;28;20298;-68
2023/05/26 12:10:46;;;;;;;;;;;18.40;88.10;;;;;;5072618;28;19943;-69
2023/05/26 12:13:12;;;;;;;;;;;18.50;88.50;;;;;;5070197;28;20374;-68
2023/05/26 12:15:37;;;;;;;;;;;18.40;87.20;;;;;;5065448;28;20306;-69
2023/05/26 12:18:03;;;;;;;;;;;18.20;87.00;;;;;;5074857;28;20006;-69
2023/05/26 12:20:28;;;;;;;;;;;18.20;83.50;;;;;;5093694;28;19927;-71
2023/05/26 12:23:05;;;;;;;;;;;18.30;87.40;;;;;;5082881;28;19983;-69
2023/05/26 12:25:31;;;;;;;;;;;18.40;86.30;;;;;;5073270;28;20011;-69
2023/05/26 12:27:57;;;;;;;;;;;18.50;86.90;;;;;;5093508;28;19999;-69
2023/05/26 12:30:30;;;;;;;;;;;18.60;88.20;;;;;;5082996;28;20021;-68
2023/05/26 12:32:57;;;;;;;;;;;18.40;87.00;;;;;;5079868;28;19931;-69
2023/05/26 12:35:23;;;;;;;;;;;18.40;87.00;;;;;;5092971;28;20504;-69
2023/05/26 12:37:48;;;;;;;;;;;18.50;88.60;;;;;;5063019;28;20014;-69
2023/05/26 12:40:14;;;;;;;;;;;18.80;86.80;;;;;;5092949;28;19924;-69
2023/05/26 12:42:40;;;;;;;;;;;18.70;86.60;;;;;;5086220;28;19968;-68
2023/05/26 12:45:06;;;;;;;;;;;18.60;85.20;;;;;;5082641;28;20366;-69
2023/05/26 12:47:32;;;;;;;;;;;18.60;87.30;;;;;;5057668;28;20374;-69
2023/05/26 12:49:57;;;;;;;;;;;18.70;83.70;;;;;;5081583;28;19927;-69
2023/05/26 12:52:23;;;;;;;;;;;18.60;84.80;;;;;;5092479;28;20006;-69
2023/05/26 12:54:48;;;;;;;;;;;18.80;87.80;;;;;;5092752;28;19962;-69
2023/05/26 12:57:14;;;;;;;;;;;18.90;88.70;;;;;;5079868;28;19998;-68
2023/05/26 12:59:40;;;;;;;;;;;19.00;84.80;;;;;;5070322;28;19924;-69
2023/05/26 13:02:05;;;;;;;;;;;18.90;85.90;;;;;;5092824;28;19941;-68
2023/05/26 13:04:31;;;;;;;;;;;19.00;87.70;;;;;;5081428;28;19943;-68
2023/05/26 13:06:56;;;;;;;;;;;19.20;87.30;;;;;;5092257;28;20372;-69
2023/05/26 13:09:22;;;;;;;;;;;19.00;83.60;;;;;;5092521;28;20010;-69
2023/05/26 13:11:48;;;;;;;;;;;19.10;85.40;;;;;;5071184;28;20400;-69
2023/05/26 13:14:14;;;;;;;;;;;19.20;86.10;;;;;;5074103;28;20015;-69
2023/05/26 13:16:40;;;;;;;;;;;19.10;83.50;;;;;;5073761;28;19920;-69
2023/05/26 13:19:06;;;;;;;;;;;19.00;85.10;;;;;;5092204;28;19946;-69
2023/05/26 13:21:31;;;;;;;;;;;19.30;87.90;;;;;;5074255;28;20031;-69
2023/05/26 13:23:57;;;;;;;;;;;19.50;88.20;;;;;;5067256;28;19927;-69
2023/05/26 13:26:23;;;;;;;;;;;19.10;81.30;;;;;;5089727;28;19920;-69
2023/05/26 13:28:50;;;;;;;;;;;18.90;84.50;;;;;;5061882;28;19924;-69
2023/05/26 13:31:15;;;;;;;;;;;18.90;84.90;;;;;;5088021;28;19920;-69
2023/05/26 13:33:41;;;;;;;;;;;19.10;82.40;;;;;;5091893;28;19927;-69
2023/05/26 13:36:08;;;;;;;;;;;18.80;82.20;;;;;;5071764;28;19926;-69
2023/05/26 13:38:33;;;;;;;;;;;18.80;84.30;;;;;;5086548;28;19925;-69
2023/05/26 13:40:59;;;;;;;;;;;19.10;86.90;;;;;;5091941;28;20293;-69
2023/05/26 13:43:25;;;;;;;;;;;19.20;83.70;;;;;;5092540;28;19951;-69
2023/05/26 13:45:51;;;;;;;;;;;19.40;83.60;;;;;;5068402;28;19924;-69
2023/05/26 13:48:16;;;;;;;;;;;19.50;85.80;;;;;;5062117;28;19920;-68
2023/05/26 13:50:42;;;;;;;;;;;19.70;84.80;;;;;;5073707;28;19927;-69
2023/05/26 13:53:07;;;;;;;;;;;19.70;85.60;;;;;;5069289;28;20370;-69
2023/05/26 13:55:33;;;;;;;;;;;19.80;83.10;;;;;;5082486;28;19927;-68
2023/05/26 13:57:59;;;;;;;;;;;19.90;85.40;;;;;;5051099;28;19928;-68
2023/05/26 14:00:26;;;;;;;;;;;19.90;81.70;;;;;;5080314;28;20309;-69
2023/05/26 14:02:51;;;;;;;;;;;19.80;79.50;;;;;;5083842;28;19924;-69
2023/05/26 14:05:18;;;;;;;;;;;20.00;84.70;;;;;;5064475;28;20324;-68
2023/05/26 14:07:45;;;;;;;;;;;20.20;80.70;;;;;;5077779;28;20582;-69
2023/05/26 14:10:10;;;;;;;;;;;20.30;81.30;;;;;;5073357;28;19922;-69
2023/05/26 14:12:36;;;;;;;;;;;20.50;76.40;;;;;;5074941;28;19927;-70
2023/05/26 14:15:02;;;;;;;;;;;20.70;76.90;;;;;;5065667;28;19928;-70
2023/05/26 14:17:27;;;;;;;;;;;20.60;72.70;;;;;;5064740;28;19924;-70
2023/05/26 14:19:53;;;;;;;;;;;20.60;75.80;;;;;;5070349;28;19927;-69